createdAt,value
2023-01-05T00:00:38.535Z,1001.42
2023-01-05T00:01:38.516Z,1001.41
2023-01-05T00:02:38.559Z,1001.42
2023-01-05T00:03:38.499Z,1001.37
2023-01-05T00:04:38.487Z,1001.47
2023-01-05T00:05:38.463Z,1001.40
2023-01-05T00:06:38.450Z,1001.38
2023-01-05T00:07:38.409Z,1001.45
2023-01-05T00:08:38.428Z,1001.44
2023-01-05T00:09:38.394Z,1001.32
2023-01-05T00:10:38.391Z,1001.41
2023-01-05T00:11:38.386Z,1001.43
2023-01-05T00:12:38.367Z,1001.47
2023-01-05T00:13:38.382Z,1001.49
2023-01-05T00:14:38.352Z,1001.50
2023-01-05T00:15:38.335Z,1001.47
2023-01-05T00:16:38.353Z,1001.48
2023-01-05T00:17:38.340Z,1001.44
2023-01-05T00:18:38.330Z,1001.36
2023-01-05T00:19:38.299Z,1001.34
2023-01-05T00:20:38.276Z,1001.30
2023-01-05T00:21:38.270Z,1001.33
2023-01-05T00:22:38.265Z,1001.31
2023-01-05T00:23:38.277Z,1001.39
2023-01-05T00:24:38.279Z,1001.37
2023-01-05T00:25:38.229Z,1001.46
2023-01-05T00:26:38.227Z,1001.43
2023-01-05T00:27:38.212Z,1001.37
2023-01-05T00:28:38.228Z,1001.36
2023-01-05T00:29:38.202Z,1001.35
2023-01-05T00:30:38.183Z,1001.44
2023-01-05T00:31:38.272Z,1001.39
2023-01-05T00:32:38.172Z,1001.42
2023-01-05T00:33:38.179Z,1001.46
2023-01-05T00:34:38.135Z,1001.44
2023-01-05T00:35:38.135Z,1001.48
2023-01-05T00:36:38.288Z,1001.47
2023-01-05T00:37:38.202Z,1001.47
2023-01-05T00:38:38.123Z,1001.44
2023-01-05T00:39:38.095Z,1001.45
2023-01-05T00:40:38.080Z,1001.46
2023-01-05T00:41:38.061Z,1001.49
2023-01-05T00:42:44.542Z,1001.49
2023-01-05T00:43:38.070Z,1001.52
2023-01-05T00:44:38.038Z,1001.54
2023-01-05T00:45:38.123Z,1001.56
2023-01-05T00:46:38.017Z,1001.54
2023-01-05T00:47:38.000Z,1001.59
2023-01-05T00:48:38.014Z,1001.51
2023-01-05T00:49:38.012Z,1001.55
2023-01-05T00:50:37.970Z,1001.52
2023-01-05T00:51:37.982Z,1001.57
2023-01-05T00:52:37.958Z,1001.52
2023-01-05T00:53:37.971Z,1001.51
2023-01-05T00:54:37.968Z,1001.53
2023-01-05T00:55:37.917Z,1001.54
2023-01-05T00:56:37.909Z,1001.59
2023-01-05T00:57:37.897Z,1001.56
2023-01-05T00:58:37.927Z,1001.58
2023-01-05T00:59:37.898Z,1001.56
2023-01-05T01:00:42.310Z,1001.56
2023-01-05T01:01:37.999Z,1001.60
2023-01-05T01:02:37.842Z,1001.59
2023-01-05T01:03:37.946Z,1001.65
2023-01-05T01:04:37.868Z,1001.59
2023-01-05T01:05:37.839Z,1001.58
2023-01-05T01:06:37.808Z,1001.56
2023-01-05T01:07:37.807Z,1001.60
2023-01-05T01:08:37.811Z,1001.65
2023-01-05T01:09:37.817Z,1001.61
2023-01-05T01:10:37.832Z,1001.63
2023-01-05T01:11:37.772Z,1001.56
2023-01-05T01:12:37.759Z,1001.60
2023-01-05T01:13:37.762Z,1001.59
2023-01-05T01:14:37.745Z,1001.71
2023-01-05T01:15:37.738Z,1001.62
2023-01-05T01:16:37.745Z,1001.64
2023-01-05T01:17:37.691Z,1001.67
2023-01-05T01:18:37.701Z,1001.64
2023-01-05T01:19:37.678Z,1001.65
2023-01-05T01:20:37.684Z,1001.63
2023-01-05T01:21:37.644Z,1001.67
2023-01-05T01:22:37.637Z,1001.63
2023-01-05T01:23:37.670Z,1001.67
2023-01-05T01:24:37.612Z,1001.65
2023-01-05T01:25:37.612Z,1001.60
2023-01-05T01:26:37.607Z,1001.63
2023-01-05T01:27:37.600Z,1001.71
2023-01-05T01:28:37.588Z,1001.73
2023-01-05T01:29:37.590Z,1001.74
2023-01-05T01:30:37.645Z,1001.74
2023-01-05T01:31:37.554Z,1001.74
2023-01-05T01:32:37.529Z,1001.72
2023-01-05T01:33:37.528Z,1001.81
2023-01-05T01:34:37.532Z,1001.80
2023-01-05T01:35:37.535Z,1001.79
2023-01-05T01:36:37.485Z,1001.88
2023-01-05T01:37:37.492Z,1001.74
2023-01-05T01:38:37.500Z,1001.91
2023-01-05T01:39:37.492Z,1001.95
2023-01-05T01:40:37.445Z,1001.82
2023-01-05T01:41:37.437Z,1001.80
2023-01-05T01:42:37.430Z,1001.83
2023-01-05T01:43:37.458Z,1001.90
2023-01-05T01:44:37.432Z,1001.91
2023-01-05T01:45:37.455Z,1001.89
2023-01-05T01:46:37.380Z,1001.94
2023-01-05T01:47:37.388Z,1002.00
2023-01-05T01:48:37.367Z,1002.00
2023-01-05T01:49:37.374Z,1002.04
2023-01-05T01:50:37.372Z,1002.14
2023-01-05T01:51:37.351Z,1002.06
2023-01-05T01:52:37.338Z,1002.04
2023-01-05T01:53:37.321Z,1002.01
2023-01-05T01:54:37.326Z,1002.10
2023-01-05T01:55:43.790Z,1002.05
2023-01-05T01:56:43.775Z,1002.14
2023-01-05T01:57:37.281Z,1002.06
2023-01-05T01:58:37.268Z,1002.18
2023-01-05T01:59:45.103Z,1002.20
2023-01-05T02:00:43.737Z,1002.21
2023-01-05T02:01:44.097Z,1002.15
2023-01-05T02:02:43.702Z,1002.12
2023-01-05T02:03:43.707Z,1002.17
2023-01-05T02:04:45.163Z,1002.14
2023-01-05T02:05:37.187Z,1002.16
2023-01-05T02:06:37.182Z,1002.21
2023-01-05T02:07:37.178Z,1002.19
2023-01-05T02:08:37.176Z,1002.19
2023-01-05T02:09:37.167Z,1002.21
2023-01-05T02:10:37.129Z,1002.21
2023-01-05T02:11:37.132Z,1002.24
2023-01-05T02:12:37.112Z,1002.25
2023-01-05T02:13:37.147Z,1002.25
2023-01-05T02:14:37.124Z,1002.28
2023-01-05T02:15:37.143Z,1002.25
2023-01-05T02:16:37.122Z,1002.17
2023-01-05T02:17:37.076Z,1002.14
2023-01-05T02:18:37.062Z,1002.14
2023-01-05T02:19:37.081Z,1002.12
2023-01-05T02:20:37.032Z,1002.19
2023-01-05T02:21:37.049Z,1002.22
2023-01-05T02:22:37.017Z,1002.26
2023-01-05T02:23:37.010Z,1002.23
2023-01-05T02:24:37.020Z,1002.37
2023-01-05T02:25:37.019Z,1002.24
2023-01-05T02:26:36.968Z,1002.19
2023-01-05T02:27:36.968Z,1002.24
2023-01-05T02:28:36.950Z,1002.24
2023-01-05T02:29:36.982Z,1002.17
2023-01-05T02:30:36.975Z,1002.25
2023-01-05T02:31:36.939Z,1002.25
2023-01-05T02:32:36.917Z,1002.24
2023-01-05T02:33:36.907Z,1002.26
2023-01-05T02:34:36.911Z,1002.25
2023-01-05T02:35:36.875Z,1002.20
2023-01-05T02:36:36.863Z,1002.36
2023-01-05T02:37:36.865Z,1002.25
2023-01-05T02:38:36.855Z,1002.26
2023-01-05T02:39:36.893Z,1002.29
2023-01-05T02:40:36.830Z,1002.31
2023-01-05T02:41:36.814Z,1002.31
2023-01-05T02:42:36.799Z,1002.32
2023-01-05T02:43:36.811Z,1002.34
2023-01-05T02:44:36.801Z,1002.34
2023-01-05T02:45:36.779Z,1002.31
2023-01-05T02:46:36.898Z,1002.34
2023-01-05T02:47:36.762Z,1002.31
2023-01-05T02:48:36.739Z,1002.35
2023-01-05T02:49:36.768Z,1002.32
2023-01-05T02:50:36.731Z,1002.30
2023-01-05T02:51:36.742Z,1002.30
2023-01-05T02:52:36.700Z,1002.27
2023-01-05T02:53:36.687Z,1002.30
2023-01-05T02:54:36.686Z,1002.34
2023-01-05T02:55:36.698Z,1002.32
2023-01-05T02:56:36.660Z,1002.36
2023-01-05T02:57:36.649Z,1002.39
2023-01-05T02:58:36.633Z,1002.39
2023-01-05T02:59:36.655Z,1002.42
2023-01-05T03:00:36.667Z,1002.40
2023-01-05T03:01:36.747Z,1002.44
2023-01-05T03:02:36.776Z,1002.38
2023-01-05T03:03:36.628Z,1002.34
2023-01-05T03:04:36.578Z,1002.29
2023-01-05T03:05:36.586Z,1002.31
2023-01-05T03:06:36.552Z,1002.36
2023-01-05T03:07:36.552Z,1002.34
2023-01-05T03:08:36.535Z,1002.37
2023-01-05T03:09:36.543Z,1002.38
2023-01-05T03:10:36.554Z,1002.34
2023-01-05T03:11:36.502Z,1002.33
2023-01-05T03:12:36.494Z,1002.28
2023-01-05T03:13:36.486Z,1002.25
2023-01-05T03:14:36.483Z,1002.31
2023-01-05T03:15:36.496Z,1002.36
2023-01-05T03:16:36.450Z,1002.28
2023-01-05T03:17:36.452Z,1002.29
2023-01-05T03:18:36.446Z,1002.29
2023-01-05T03:19:36.442Z,1002.34
2023-01-05T03:20:36.430Z,1002.37
2023-01-05T03:21:36.397Z,1002.43
2023-01-05T03:22:36.400Z,1002.39
2023-01-05T03:23:36.380Z,1002.39
2023-01-05T03:24:36.362Z,1002.38
2023-01-05T03:25:36.383Z,1002.37
2023-01-05T03:26:36.352Z,1002.37
2023-01-05T03:27:36.368Z,1002.36
2023-01-05T03:28:36.333Z,1002.44
2023-01-05T03:29:36.332Z,1002.41
2023-01-05T03:30:36.441Z,1002.35
2023-01-05T03:31:36.299Z,1002.38
2023-01-05T03:32:36.301Z,1002.39
2023-01-05T03:33:36.279Z,1002.40
2023-01-05T03:34:36.273Z,1002.43
2023-01-05T03:35:36.284Z,1002.42
2023-01-05T03:36:36.239Z,1002.43
2023-01-05T03:37:36.240Z,1002.41
2023-01-05T03:38:36.239Z,1002.39
2023-01-05T03:39:36.242Z,1002.50
2023-01-05T03:40:36.211Z,1002.46
2023-01-05T03:41:36.230Z,1002.49
2023-01-05T03:42:36.174Z,1002.52
2023-01-05T03:43:36.181Z,1002.43
2023-01-05T03:44:36.157Z,1002.46
2023-01-05T03:45:50.231Z,1002.39
2023-01-05T03:46:36.214Z,1002.44
2023-01-05T03:47:36.144Z,1002.47
2023-01-05T03:48:36.124Z,1002.49
2023-01-05T03:49:36.104Z,1002.55
2023-01-05T03:50:36.116Z,1002.55
2023-01-05T03:51:41.388Z,1002.54
2023-01-05T03:53:46.899Z,1002.52
2023-01-05T03:54:47.884Z,1002.53
2023-01-05T03:55:47.901Z,1002.61
2023-01-05T03:56:47.870Z,1002.54
2023-01-05T03:57:47.862Z,1002.54
2023-01-05T03:58:47.847Z,1002.54
2023-01-05T03:59:47.845Z,1002.52
2023-01-05T04:00:47.844Z,1002.59
2023-01-05T04:01:47.936Z,1002.52
2023-01-05T04:02:47.963Z,1002.57
2023-01-05T04:03:47.890Z,1002.57
2023-01-05T04:04:47.789Z,1002.61
2023-01-05T04:05:47.809Z,1002.56
2023-01-05T04:06:47.769Z,1002.59
2023-01-05T04:07:47.749Z,1002.57
2023-01-05T04:08:47.746Z,1002.52
2023-01-05T04:09:47.772Z,1002.55
2023-01-05T04:10:47.756Z,1002.54
2023-01-05T04:11:47.715Z,1002.58
2023-01-05T04:12:47.720Z,1002.62
2023-01-05T04:13:47.712Z,1002.70
2023-01-05T04:14:47.705Z,1002.61
2023-01-05T04:15:47.880Z,1002.71
2023-01-05T04:16:47.673Z,1002.60
2023-01-05T04:17:47.664Z,1002.68
2023-01-05T04:18:47.641Z,1002.60
2023-01-05T04:19:47.638Z,1002.68
2023-01-05T04:20:47.659Z,1002.66
2023-01-05T04:21:47.637Z,1002.65
2023-01-05T04:22:47.614Z,1002.69
2023-01-05T04:23:47.596Z,1002.65
2023-01-05T04:24:47.582Z,1002.65
2023-01-05T04:25:47.575Z,1002.67
2023-01-05T04:26:47.585Z,1002.67
2023-01-05T04:27:47.545Z,1002.60
2023-01-05T04:28:47.556Z,1002.67
2023-01-05T04:29:47.544Z,1002.63
2023-01-05T04:30:47.526Z,1002.67
2023-01-05T04:31:47.524Z,1002.65
2023-01-05T04:32:47.500Z,1002.57
2023-01-05T04:33:47.491Z,1002.61
2023-01-05T04:34:47.482Z,1002.59
2023-01-05T04:35:47.461Z,1002.60
2023-01-05T04:36:47.478Z,1002.64
2023-01-05T04:37:47.438Z,1002.74
2023-01-05T04:38:47.436Z,1002.75
2023-01-05T04:39:47.425Z,1002.68
2023-01-05T04:40:47.427Z,1002.70
2023-01-05T04:41:47.430Z,1002.70
2023-01-05T04:42:47.402Z,1002.72
2023-01-05T04:43:47.386Z,1002.74
2023-01-05T04:44:47.380Z,1002.76
2023-01-05T04:45:47.356Z,1002.77
2023-01-05T04:46:47.415Z,1002.75
2023-01-05T04:47:47.339Z,1002.81
2023-01-05T04:48:47.336Z,1002.78
2023-01-05T04:49:47.320Z,1002.75
2023-01-05T04:50:47.321Z,1002.79
2023-01-05T04:51:47.336Z,1002.78
2023-01-05T04:52:47.300Z,1002.79
2023-01-05T04:53:47.286Z,1002.78
2023-01-05T04:54:47.298Z,1002.80
2023-01-05T04:55:47.282Z,1002.86
2023-01-05T04:56:47.279Z,1002.88
2023-01-05T04:57:47.247Z,1002.85
2023-01-05T04:58:47.243Z,1002.79
2023-01-05T04:59:47.221Z,1002.83
2023-01-05T05:00:47.216Z,1002.84
2023-01-05T05:01:47.275Z,1002.83
2023-01-05T05:02:47.307Z,1002.86
2023-01-05T05:03:47.238Z,1002.87
2023-01-05T05:04:47.183Z,1002.92
2023-01-05T05:05:47.162Z,1002.92
2023-01-05T05:06:47.174Z,1002.96
2023-01-05T05:07:47.144Z,1002.94
2023-01-05T05:08:47.179Z,1002.94
2023-01-05T05:09:47.120Z,1002.89
2023-01-05T05:10:47.121Z,1002.95
2023-01-05T05:11:47.165Z,1003.03
2023-01-05T05:12:47.119Z,1002.99
2023-01-05T05:13:47.081Z,1003.05
2023-01-05T05:14:47.074Z,1003.10
2023-01-05T05:15:47.087Z,1003.08
2023-01-05T05:16:47.069Z,1003.09
2023-01-05T05:17:47.048Z,1003.16
2023-01-05T05:18:47.028Z,1003.23
2023-01-05T05:19:47.018Z,1003.27
2023-01-05T05:20:47.008Z,1003.26
2023-01-05T05:21:47.023Z,1003.27
2023-01-05T05:22:46.980Z,1003.28
2023-01-05T05:23:46.982Z,1003.25
2023-01-05T05:24:46.962Z,1003.20
2023-01-05T05:25:46.953Z,1003.27
2023-01-05T05:26:46.974Z,1003.24
2023-01-05T05:27:46.952Z,1003.26
2023-01-05T05:28:46.940Z,1003.30
2023-01-05T05:29:46.943Z,1003.34
2023-01-05T05:30:46.915Z,1003.33
2023-01-05T05:31:46.979Z,1003.31
2023-01-05T05:32:46.881Z,1003.29
2023-01-05T05:33:46.868Z,1003.29
2023-01-05T05:34:46.875Z,1003.31
2023-01-05T05:35:46.842Z,1003.35
2023-01-05T05:36:46.879Z,1003.37
2023-01-05T05:37:50.118Z,1003.34
2023-01-05T05:38:46.835Z,1003.35
2023-01-05T05:39:46.806Z,1003.31
2023-01-05T05:40:46.805Z,1003.30
2023-01-05T05:41:46.816Z,1003.30
2023-01-05T05:42:46.793Z,1003.32
2023-01-05T05:43:46.767Z,1003.35
2023-01-05T05:44:46.762Z,1003.38
2023-01-05T05:45:50.614Z,1003.39
2023-01-05T05:46:46.805Z,1003.38
2023-01-05T05:47:46.747Z,1003.43
2023-01-05T05:48:46.716Z,1003.44
2023-01-05T05:49:46.700Z,1003.43
2023-01-05T05:50:46.700Z,1003.45
2023-01-05T05:51:46.710Z,1003.49
2023-01-05T05:52:46.713Z,1003.46
2023-01-05T05:53:46.659Z,1003.49
2023-01-05T05:54:46.660Z,1003.46
2023-01-05T05:55:46.663Z,1003.47
2023-01-05T05:56:46.701Z,1003.46
2023-01-05T05:57:46.619Z,1003.49
2023-01-05T05:58:46.628Z,1003.49
2023-01-05T05:59:46.601Z,1003.51
2023-01-05T06:00:46.638Z,1003.50
2023-01-05T06:01:46.748Z,1003.51
2023-01-05T06:02:46.855Z,1003.49
2023-01-05T06:03:46.799Z,1003.51
2023-01-05T06:04:46.563Z,1003.54
2023-01-05T06:05:46.538Z,1003.54
2023-01-05T06:06:46.538Z,1003.54
2023-01-05T06:07:46.576Z,1003.58
2023-01-05T06:08:46.533Z,1003.58
2023-01-05T06:09:46.503Z,1003.57
2023-01-05T06:10:46.501Z,1003.54
2023-01-05T06:11:46.485Z,1003.56
2023-01-05T06:12:46.500Z,1003.52
2023-01-05T06:13:46.460Z,1003.51
2023-01-05T06:14:46.453Z,1003.56
2023-01-05T06:15:46.453Z,1003.65
2023-01-05T06:16:46.477Z,1003.70
2023-01-05T06:17:46.454Z,1003.75
2023-01-05T06:18:46.425Z,1003.71
2023-01-05T06:19:46.400Z,1003.70
2023-01-05T06:20:46.386Z,1003.67
2023-01-05T06:21:46.370Z,1003.72
2023-01-05T06:22:46.396Z,1003.72
2023-01-05T06:23:46.350Z,1003.76
2023-01-05T06:24:46.351Z,1003.80
2023-01-05T06:25:46.336Z,1003.81
2023-01-05T06:26:46.336Z,1003.79
2023-01-05T06:27:46.353Z,1003.80
2023-01-05T06:28:46.323Z,1003.75
2023-01-05T06:29:46.311Z,1003.74
2023-01-05T06:30:46.289Z,1003.71
2023-01-05T06:31:46.317Z,1003.74
2023-01-05T06:32:46.281Z,1003.81
2023-01-05T06:33:46.251Z,1003.86
2023-01-05T06:34:46.244Z,1003.82
2023-01-05T06:35:46.245Z,1003.83
2023-01-05T06:36:46.238Z,1003.88
2023-01-05T06:37:46.210Z,1003.86
2023-01-05T06:38:46.233Z,1003.90
2023-01-05T06:39:46.189Z,1003.93
2023-01-05T06:40:46.181Z,1003.95
2023-01-05T06:41:46.177Z,1003.96
2023-01-05T06:42:46.162Z,1003.95
2023-01-05T06:43:46.176Z,1004.01
2023-01-05T06:44:46.144Z,1003.99
2023-01-05T06:45:46.170Z,1003.94
2023-01-05T06:46:46.137Z,1004.01
2023-01-05T06:47:54.720Z,1004.05
2023-01-05T06:48:52.586Z,1004.06
2023-01-05T06:49:52.580Z,1004.03
2023-01-05T06:50:46.086Z,1004.10
2023-01-05T06:51:46.063Z,1004.10
2023-01-05T06:52:46.064Z,1004.11
2023-01-05T06:53:46.096Z,1004.11
2023-01-05T06:54:46.041Z,1004.16
2023-01-05T06:55:46.049Z,1004.21
2023-01-05T06:56:46.023Z,1004.23
2023-01-05T06:57:46.008Z,1004.22
2023-01-05T06:58:46.053Z,1004.23
2023-01-05T06:59:46.005Z,1004.22
2023-01-05T07:00:46.018Z,1004.19
2023-01-05T07:01:46.170Z,1004.19
2023-01-05T07:02:45.961Z,1004.26
2023-01-05T07:03:46.030Z,1004.28
2023-01-05T07:04:45.977Z,1004.30
2023-01-05T07:05:45.879Z,1004.28
2023-01-05T07:06:45.881Z,1004.25
2023-01-05T07:07:45.861Z,1004.29
2023-01-05T07:08:45.875Z,1004.25
2023-01-05T07:09:45.831Z,1004.24
2023-01-05T07:10:45.831Z,1004.28
2023-01-05T07:11:45.862Z,1004.29
2023-01-05T07:12:45.824Z,1004.32
2023-01-05T07:13:45.821Z,1004.29
2023-01-05T07:14:45.797Z,1004.33
2023-01-05T07:15:45.777Z,1004.35
2023-01-05T07:16:45.796Z,1004.37
2023-01-05T07:17:45.748Z,1004.44
2023-01-05T07:18:45.771Z,1004.45
2023-01-05T07:19:45.761Z,1004.42
2023-01-05T07:20:45.725Z,1004.44
2023-01-05T07:21:45.720Z,1004.46
2023-01-05T07:22:45.710Z,1004.46
2023-01-05T07:23:45.725Z,1004.46
2023-01-05T07:24:45.710Z,1004.46
2023-01-05T07:25:45.678Z,1004.47
2023-01-05T07:26:45.691Z,1004.49
2023-01-05T07:27:45.655Z,1004.52
2023-01-05T07:28:45.680Z,1004.53
2023-01-05T07:29:45.727Z,1004.54
2023-01-05T07:30:45.623Z,1004.55
2023-01-05T07:31:45.649Z,1004.52
2023-01-05T07:32:45.604Z,1004.52
2023-01-05T07:33:45.612Z,1004.59
2023-01-05T07:34:54.860Z,1004.58
2023-01-05T07:35:45.580Z,1004.57
2023-01-05T07:36:45.577Z,1004.58
2023-01-05T07:37:45.564Z,1004.59
2023-01-05T07:38:45.573Z,1004.62
2023-01-05T07:39:45.536Z,1004.65
2023-01-05T07:40:45.549Z,1004.65
2023-01-05T07:41:45.502Z,1004.62
2023-01-05T07:42:45.536Z,1004.61
2023-01-05T07:43:45.518Z,1004.60
2023-01-05T07:44:45.543Z,1004.57
2023-01-05T07:45:45.512Z,1004.61
2023-01-05T07:46:45.498Z,1004.55
2023-01-05T07:47:45.448Z,1004.65
2023-01-05T07:48:45.489Z,1004.71
2023-01-05T07:49:45.436Z,1004.71
2023-01-05T07:50:45.421Z,1004.72
2023-01-05T07:51:45.403Z,1004.73
2023-01-05T07:52:45.404Z,1004.75
2023-01-05T07:53:45.408Z,1004.76
2023-01-05T07:54:45.424Z,1004.75
2023-01-05T07:55:45.415Z,1004.77
2023-01-05T07:56:45.358Z,1004.73
2023-01-05T07:57:45.345Z,1004.78
2023-01-05T07:58:45.337Z,1004.80
2023-01-05T07:59:45.344Z,1004.82
2023-01-05T08:00:45.426Z,1004.82
2023-01-05T08:01:45.442Z,1004.83
2023-01-05T08:02:45.446Z,1004.86
2023-01-05T08:03:45.335Z,1004.91
2023-01-05T08:04:45.338Z,1004.89
2023-01-05T08:05:45.311Z,1004.92
2023-01-05T08:06:45.256Z,1004.94
2023-01-05T08:07:45.246Z,1004.94
2023-01-05T08:08:45.241Z,1004.95
2023-01-05T08:09:45.249Z,1004.96
2023-01-05T08:10:45.230Z,1004.95
2023-01-05T08:11:45.194Z,1004.96
2023-01-05T08:12:45.209Z,1005.01
2023-01-05T08:13:45.184Z,1005.03
2023-01-05T08:14:45.198Z,1005.05
2023-01-05T08:15:50.864Z,1005.03
2023-01-05T08:16:45.201Z,1005.02
2023-01-05T08:17:45.167Z,1005.03
2023-01-05T08:18:45.251Z,1005.05
2023-01-05T08:19:45.150Z,1005.06
2023-01-05T08:20:45.109Z,1005.06
2023-01-05T08:21:45.090Z,1005.07
2023-01-05T08:22:45.072Z,1005.08
2023-01-05T08:23:45.092Z,1005.04
2023-01-05T08:24:45.081Z,1005.05
2023-01-05T08:25:45.051Z,1005.04
2023-01-05T08:26:45.085Z,1005.09
2023-01-05T08:27:45.033Z,1005.06
2023-01-05T08:28:45.030Z,1005.10
2023-01-05T08:29:45.045Z,1005.11
2023-01-05T08:30:45.094Z,1005.12
2023-01-05T08:31:45.042Z,1005.11
2023-01-05T08:32:44.978Z,1005.11
2023-01-05T08:33:44.977Z,1005.14
2023-01-05T08:34:55.579Z,1005.19
2023-01-05T08:35:44.947Z,1005.20
2023-01-05T08:36:44.937Z,1005.29
2023-01-05T08:37:44.928Z,1005.27
2023-01-05T08:38:44.915Z,1005.23
2023-01-05T08:39:44.930Z,1005.26
2023-01-05T08:40:44.891Z,1005.32
2023-01-05T08:41:44.929Z,1005.30
2023-01-05T08:42:44.867Z,1005.32
2023-01-05T08:43:44.886Z,1005.29
2023-01-05T08:44:44.880Z,1005.33
2023-01-05T08:45:44.877Z,1005.29
2023-01-05T08:46:44.832Z,1005.32
2023-01-05T08:47:44.840Z,1005.32
2023-01-05T08:48:44.822Z,1005.33
2023-01-05T08:49:44.869Z,1005.31
2023-01-05T08:50:44.795Z,1005.32
2023-01-05T08:51:44.808Z,1005.33
2023-01-05T08:52:44.768Z,1005.34
2023-01-05T08:53:44.834Z,1005.36
2023-01-05T08:54:44.755Z,1005.37
2023-01-05T08:55:44.771Z,1005.39
2023-01-05T08:56:44.760Z,1005.37
2023-01-05T08:57:44.746Z,1005.41
2023-01-05T08:58:44.733Z,1005.45
2023-01-05T08:59:44.716Z,1005.43
2023-01-05T09:00:44.787Z,1005.48
2023-01-05T09:01:44.825Z,1005.47
2023-01-05T09:02:44.919Z,1005.50
2023-01-05T09:03:44.742Z,1005.52
2023-01-05T09:04:44.647Z,1005.54
2023-01-05T09:05:44.671Z,1005.56
2023-01-05T09:06:44.650Z,1005.58
2023-01-05T09:07:44.631Z,1005.64
2023-01-05T09:08:44.611Z,1005.64
2023-01-05T09:09:44.608Z,1005.66
2023-01-05T09:10:44.623Z,1005.66
2023-01-05T09:11:44.601Z,1005.70
2023-01-05T09:12:44.575Z,1005.72
2023-01-05T09:13:44.576Z,1005.74
2023-01-05T09:14:44.542Z,1005.76
2023-01-05T09:15:44.567Z,1005.73
2023-01-05T09:17:44.577Z,1005.71
2023-01-05T09:18:44.511Z,1005.72
2023-01-05T09:19:44.505Z,1005.76
2023-01-05T09:20:44.511Z,1005.76
2023-01-05T09:21:44.482Z,1005.71
2023-01-05T09:22:44.465Z,1005.70
2023-01-05T09:23:44.457Z,1005.71
2023-01-05T09:24:44.486Z,1005.74
2023-01-05T09:25:44.470Z,1005.71
2023-01-05T09:26:44.459Z,1005.75
2023-01-05T09:27:44.423Z,1005.82
2023-01-05T09:28:44.412Z,1005.82
2023-01-05T09:29:44.415Z,1005.80
2023-01-05T09:30:50.113Z,1005.88
2023-01-05T09:31:44.492Z,1005.89
2023-01-05T09:32:44.385Z,1005.85
2023-01-05T09:33:44.372Z,1005.89
2023-01-05T09:34:44.358Z,1005.91
2023-01-05T09:35:44.377Z,1005.90
2023-01-05T09:36:44.330Z,1005.85
2023-01-05T09:37:44.354Z,1006.01
2023-01-05T09:38:47.145Z,1005.98
2023-01-05T09:39:44.307Z,1006.01
2023-01-05T09:40:44.349Z,1006.00
2023-01-05T09:41:44.278Z,1006.02
2023-01-05T09:42:44.272Z,1006.06
2023-01-05T09:43:44.266Z,1006.14
2023-01-05T09:44:44.245Z,1006.19
2023-01-05T09:45:44.346Z,1006.18
2023-01-05T09:46:44.240Z,1006.16
2023-01-05T09:47:44.237Z,1006.15
2023-01-05T09:48:44.203Z,1006.21
2023-01-05T09:49:44.195Z,1006.23
2023-01-05T09:50:44.177Z,1006.21
2023-01-05T09:51:44.220Z,1006.26
2023-01-05T09:52:44.161Z,1006.29
2023-01-05T09:53:44.237Z,1006.29
2023-01-05T09:54:44.146Z,1006.26
2023-01-05T09:55:44.201Z,1006.32
2023-01-05T09:57:09.189Z,1006.34
2023-01-05T09:57:44.162Z,1006.32
2023-01-05T09:58:44.113Z,1006.32
2023-01-05T09:59:44.105Z,1006.36
2023-01-05T10:00:44.087Z,1006.35
2023-01-05T10:01:44.366Z,1006.31
2023-01-05T10:02:44.061Z,1006.29
2023-01-05T10:04:44.110Z,1006.31
2023-01-05T10:05:44.109Z,1006.33
2023-01-05T10:06:44.065Z,1006.35
2023-01-05T10:07:44.012Z,1006.34
2023-01-05T10:08:44.021Z,1006.36
2023-01-05T10:09:43.996Z,1006.36
2023-01-05T10:10:44.004Z,1006.39
2023-01-05T10:11:43.988Z,1006.39
2023-01-05T10:12:43.962Z,1006.36
2023-01-05T10:13:43.940Z,1006.37
2023-01-05T10:14:43.955Z,1006.36
2023-01-05T10:15:44.025Z,1006.37
2023-01-05T10:16:43.970Z,1006.39
2023-01-05T10:17:44.621Z,1006.41
2023-01-05T10:18:43.905Z,1006.43
2023-01-05T10:19:43.881Z,1006.39
2023-01-05T10:20:43.868Z,1006.41
2023-01-05T10:21:43.880Z,1006.43
2023-01-05T10:22:43.895Z,1006.45
2023-01-05T10:23:43.844Z,1006.45
2023-01-05T10:24:43.838Z,1006.48
2023-01-05T10:25:43.823Z,1006.51
2023-01-05T10:27:14.360Z,1006.48
2023-01-05T10:27:43.834Z,1006.49
2023-01-05T10:28:43.786Z,1006.44
2023-01-05T10:29:43.776Z,1006.47
2023-01-05T10:30:43.792Z,1006.49
2023-01-05T10:31:43.800Z,1006.46
2023-01-05T10:32:49.979Z,1006.48
2023-01-05T10:33:52.523Z,1006.50
2023-01-05T10:34:43.758Z,1006.49
2023-01-05T10:36:00.578Z,1006.52
2023-01-05T10:37:43.749Z,1006.49
2023-01-05T10:38:43.694Z,1006.49
2023-01-05T10:39:43.688Z,1006.50
2023-01-05T10:40:43.657Z,1006.52
2023-01-05T10:41:43.653Z,1006.52
2023-01-05T10:42:43.669Z,1006.55
2023-01-05T10:43:43.641Z,1006.54
2023-01-05T10:44:43.629Z,1006.55
2023-01-05T10:46:11.252Z,1006.55
2023-01-05T10:46:52.685Z,1006.57
2023-01-05T10:47:50.309Z,1006.60
2023-01-05T10:48:51.073Z,1006.59
2023-01-05T10:49:51.075Z,1006.63
2023-01-05T10:50:50.051Z,1006.63
2023-01-05T10:51:43.550Z,1006.62
2023-01-05T10:52:43.557Z,1006.63
2023-01-05T10:53:43.538Z,1006.62
2023-01-05T10:54:43.516Z,1006.66
2023-01-05T10:55:43.540Z,1006.69
2023-01-05T10:56:43.504Z,1006.69
2023-01-05T10:57:43.518Z,1006.70
2023-01-05T10:58:43.478Z,1006.70
2023-01-05T10:59:43.516Z,1006.70
2023-01-05T11:00:43.473Z,1006.71
2023-01-05T11:01:43.563Z,1006.72
2023-01-05T11:02:43.501Z,1006.70
2023-01-05T11:04:43.462Z,1006.68
2023-01-05T11:05:43.406Z,1006.66
2023-01-05T11:06:43.395Z,1006.71
2023-01-05T11:07:43.413Z,1006.69
2023-01-05T11:08:43.374Z,1006.68
2023-01-05T11:09:43.378Z,1006.66
2023-01-05T11:10:43.355Z,1006.67
2023-01-05T11:11:43.370Z,1006.67
2023-01-05T11:12:43.357Z,1006.67
2023-01-05T11:13:43.325Z,1006.66
2023-01-05T11:14:43.312Z,1006.68
2023-01-05T11:15:43.353Z,1006.67
2023-01-05T11:16:43.287Z,1006.71
2023-01-05T11:17:43.310Z,1006.73
2023-01-05T11:18:43.264Z,1006.73
2023-01-05T11:19:43.266Z,1006.68
2023-01-05T11:20:43.251Z,1006.70
2023-01-05T11:21:43.243Z,1006.68
2023-01-05T11:22:43.257Z,1006.70
2023-01-05T11:23:43.219Z,1006.67
2023-01-05T11:24:43.205Z,1006.68
2023-01-05T11:25:43.206Z,1006.69
2023-01-05T11:26:43.198Z,1006.69
2023-01-05T11:27:43.212Z,1006.70
2023-01-05T11:28:43.285Z,1006.71
2023-01-05T11:29:43.163Z,1006.73
2023-01-05T11:30:43.216Z,1006.76
2023-01-05T11:31:43.197Z,1006.76
2023-01-05T11:32:43.151Z,1006.78
2023-01-05T11:33:43.112Z,1006.78
2023-01-05T11:34:43.129Z,1006.78
2023-01-05T11:35:43.099Z,1006.78
2023-01-05T11:36:43.083Z,1006.77
2023-01-05T11:37:43.097Z,1006.77
2023-01-05T11:38:43.063Z,1006.77
2023-01-05T11:39:43.068Z,1006.74
2023-01-05T11:40:43.047Z,1006.74
2023-01-05T11:41:43.073Z,1006.73
2023-01-05T11:42:43.021Z,1006.73
2023-01-05T11:43:43.061Z,1006.71
2023-01-05T11:44:43.005Z,1006.73
2023-01-05T11:45:42.989Z,1006.74
2023-01-05T11:46:43.089Z,1006.76
2023-01-05T11:47:44.509Z,1006.73
2023-01-05T11:48:42.988Z,1006.74
2023-01-05T11:49:42.965Z,1006.74
2023-01-05T11:50:42.932Z,1006.73
2023-01-05T11:51:42.931Z,1006.73
2023-01-05T11:52:42.920Z,1006.73
2023-01-05T11:53:42.933Z,1006.76
2023-01-05T11:54:42.899Z,1006.79
2023-01-05T11:55:42.890Z,1006.78
2023-01-05T11:56:42.885Z,1006.79
2023-01-05T11:57:42.895Z,1006.78
2023-01-05T11:58:42.879Z,1006.79
2023-01-05T11:59:42.874Z,1006.82
2023-01-05T12:00:42.891Z,1006.81
2023-01-05T12:01:42.962Z,1006.83
2023-01-05T12:02:42.906Z,1006.84
2023-01-05T12:03:42.866Z,1006.84
2023-01-05T12:04:42.803Z,1006.83
2023-01-05T12:05:42.781Z,1006.85
2023-01-05T12:06:42.780Z,1006.83
2023-01-05T12:07:43.405Z,1006.82
2023-01-05T12:08:42.831Z,1006.82
2023-01-05T12:09:42.805Z,1006.79
2023-01-05T12:10:42.742Z,1006.86